sensor_id;sensor_type;location;lat;lon;timestamp;temperature;humidity
11491;DHT22;5802;52.832;4.758;2022-12-04T00:00:52;22.30;40.90
11491;DHT22;5802;52.832;4.758;2022-12-04T00:03:19;22.30;40.90
11491;DHT22;5802;52.832;4.758;2022-12-04T00:05:46;22.30;40.90
11491;DHT22;5802;52.832;4.758;2022-12-04T00:08:13;22.20;40.90
11491;DHT22;5802;52.832;4.758;2022-12-04T00:10:42;22.20;41.00
11491;DHT22;5802;52.832;4.758;2022-12-04T00:13:09;22.20;40.80
11491;DHT22;5802;52.832;4.758;2022-12-04T00:15:40;22.20;40.90
11491;DHT22;5802;52.832;4.758;2022-12-04T00:18:07;22.20;40.90
11491;DHT22;5802;52.832;4.758;2022-12-04T00:20:34;22.20;40.90
11491;DHT22;5802;52.832;4.758;2022-12-04T00:23:03;22.20;40.90
11491;DHT22;5802;52.832;4.758;2022-12-04T00:25:30;22.20;40.90
11491;DHT22;5802;52.832;4.758;2022-12-04T00:27:58;22.20;40.90
11491;DHT22;5802;52.832;4.758;2022-12-04T00:30:25;22.20;40.90
11491;DHT22;5802;52.832;4.758;2022-12-04T00:32:51;22.20;41.00
11491;DHT22;5802;52.832;4.758;2022-12-04T00:35:18;22.20;41.00
11491;DHT22;5802;52.832;4.758;2022-12-04T00:37:45;22.20;40.90
11491;DHT22;5802;52.832;4.758;2022-12-04T00:40:12;22.20;41.00
11491;DHT22;5802;52.832;4.758;2022-12-04T00:42:39;22.20;41.00
11491;DHT22;5802;52.832;4.758;2022-12-04T00:45:07;22.10;40.90
11491;DHT22;5802;52.832;4.758;2022-12-04T00:47:34;22.10;41.00
11491;DHT22;5802;52.832;4.758;2022-12-04T00:50:02;22.10;40.90
11491;DHT22;5802;52.832;4.758;2022-12-04T00:52:29;22.10;41.00
11491;DHT22;5802;52.832;4.758;2022-12-04T00:54:55;22.10;41.00
11491;DHT22;5802;52.832;4.758;2022-12-04T00:57:22;22.10;40.90
11491;DHT22;5802;52.832;4.758;2022-12-04T00:59:49;22.10;40.90
11491;DHT22;5802;52.832;4.758;2022-12-04T01:02:17;22.10;40.90
11491;DHT22;5802;52.832;4.758;2022-12-04T01:04:43;22.10;40.90
11491;DHT22;5802;52.832;4.758;2022-12-04T01:07:10;22.10;41.00
11491;DHT22;5802;52.832;4.758;2022-12-04T01:09:36;22.10;41.00
11491;DHT22;5802;52.832;4.758;2022-12-04T01:12:03;22.10;41.00
11491;DHT22;5802;52.832;4.758;2022-12-04T01:14:30;22.10;41.10
11491;DHT22;5802;52.832;4.758;2022-12-04T01:16:57;22.10;41.10
11491;DHT22;5802;52.832;4.758;2022-12-04T01:19:25;22.10;41.10
11491;DHT22;5802;52.832;4.758;2022-12-04T01:21:51;22.10;41.10
11491;DHT22;5802;52.832;4.758;2022-12-04T01:24:18;22.10;41.10
11491;DHT22;5802;52.832;4.758;2022-12-04T01:26:44;22.10;41.10
11491;DHT22;5802;52.832;4.758;2022-12-04T01:29:11;22.10;41.20
11491;DHT22;5802;52.832;4.758;2022-12-04T01:31:38;22.10;41.20
11491;DHT22;5802;52.832;4.758;2022-12-04T01:34:04;22.10;41.20
11491;DHT22;5802;52.832;4.758;2022-12-04T01:36:32;22.10;41.10
11491;DHT22;5802;52.832;4.758;2022-12-04T01:38:59;22.10;41.10
11491;DHT22;5802;52.832;4.758;2022-12-04T01:41:28;22.10;41.20
11491;DHT22;5802;52.832;4.758;2022-12-04T01:44:10;22.10;41.20
11491;DHT22;5802;52.832;4.758;2022-12-04T01:46:37;22.00;41.10
11491;DHT22;5802;52.832;4.758;2022-12-04T01:49:05;22.00;41.10
11491;DHT22;5802;52.832;4.758;2022-12-04T01:51:37;22.00;41.20
11491;DHT22;5802;52.832;4.758;2022-12-04T01:54:07;22.00;41.20
11491;DHT22;5802;52.832;4.758;2022-12-04T01:56:38;22.00;41.20
11491;DHT22;5802;52.832;4.758;2022-12-04T01:59:06;22.00;41.10
11491;DHT22;5802;52.832;4.758;2022-12-04T02:01:39;22.00;41.30
11491;DHT22;5802;52.832;4.758;2022-12-04T02:04:08;22.00;41.10
11491;DHT22;5802;52.832;4.758;2022-12-04T02:06:36;22.00;41.20
11491;DHT22;5802;52.832;4.758;2022-12-04T02:09:03;22.00;41.20
11491;DHT22;5802;52.832;4.758;2022-12-04T02:11:35;22.00;41.20
11491;DHT22;5802;52.832;4.758;2022-12-04T02:14:08;22.00;41.20
11491;DHT22;5802;52.832;4.758;2022-12-04T02:16:44;22.00;41.20
11491;DHT22;5802;52.832;4.758;2022-12-04T02:19:47;22.00;41.20
11491;DHT22;5802;52.832;4.758;2022-12-04T02:22:29;22.00;41.30
11491;DHT22;5802;52.832;4.758;2022-12-04T02:25:05;22.00;41.20
11491;DHT22;5802;52.832;4.758;2022-12-04T02:28:02;22.00;41.30
11491;DHT22;5802;52.832;4.758;2022-12-04T02:30:31;22.00;41.30
11491;DHT22;5802;52.832;4.758;2022-12-04T02:33:06;22.00;41.30
11491;DHT22;5802;52.832;4.758;2022-12-04T02:35:37;22.00;41.40
11491;DHT22;5802;52.832;4.758;2022-12-04T02:38:11;22.00;41.30
11491;DHT22;5802;52.832;4.758;2022-12-04T02:40:45;22.00;41.40
11491;DHT22;5802;52.832;4.758;2022-12-04T02:43:18;22.00;41.40
11491;DHT22;5802;52.832;4.758;2022-12-04T02:45:53;22.00;41.50
11491;DHT22;5802;52.832;4.758;2022-12-04T02:48:23;22.00;41.50
11491;DHT22;5802;52.832;4.758;2022-12-04T02:50:53;22.00;41.50
11491;DHT22;5802;52.832;4.758;2022-12-04T02:53:23;22.00;41.50
11491;DHT22;5802;52.832;4.758;2022-12-04T02:55:53;22.00;41.50
11491;DHT22;5802;52.832;4.758;2022-12-04T02:58:25;22.00;41.50
11491;DHT22;5802;52.832;4.758;2022-12-04T03:00:53;22.00;41.40
11491;DHT22;5802;52.832;4.758;2022-12-04T03:03:24;22.00;41.40
11491;DHT22;5802;52.832;4.758;2022-12-04T03:05:55;22.00;41.50
11491;DHT22;5802;52.832;4.758;2022-12-04T03:08:26;22.00;41.50
11491;DHT22;5802;52.832;4.758;2022-12-04T03:10:55;22.00;41.50
11491;DHT22;5802;52.832;4.758;2022-12-04T03:13:29;22.00;41.40
11491;DHT22;5802;52.832;4.758;2022-12-04T03:16:01;22.00;41.40
11491;DHT22;5802;52.832;4.758;2022-12-04T03:18:34;22.00;41.50
11491;DHT22;5802;52.832;4.758;2022-12-04T03:21:03;22.00;41.50
11491;DHT22;5802;52.832;4.758;2022-12-04T03:23:34;22.00;41.40
11491;DHT22;5802;52.832;4.758;2022-12-04T03:26:11;22.00;41.40
11491;DHT22;5802;52.832;4.758;2022-12-04T03:28:50;22.00;41.40
11491;DHT22;5802;52.832;4.758;2022-12-04T03:31:23;22.00;41.40
11491;DHT22;5802;52.832;4.758;2022-12-04T03:33:54;22.00;41.30
11491;DHT22;5802;52.832;4.758;2022-12-04T03:36:24;22.00;41.40
11491;DHT22;5802;52.832;4.758;2022-12-04T03:38:55;22.00;41.40
11491;DHT22;5802;52.832;4.758;2022-12-04T03:41:25;22.00;41.50
11491;DHT22;5802;52.832;4.758;2022-12-04T03:43:58;22.00;41.40
11491;DHT22;5802;52.832;4.758;2022-12-04T03:46:28;22.00;41.40
11491;DHT22;5802;52.832;4.758;2022-12-04T03:49:01;22.00;41.40
11491;DHT22;5802;52.832;4.758;2022-12-04T03:51:37;22.00;41.40
11491;DHT22;5802;52.832;4.758;2022-12-04T03:54:08;22.00;41.40
11491;DHT22;5802;52.832;4.758;2022-12-04T03:56:40;22.00;41.40
11491;DHT22;5802;52.832;4.758;2022-12-04T03:59:13;22.00;41.40
11491;DHT22;5802;52.832;4.758;2022-12-04T04:01:45;22.00;41.30
11491;DHT22;5802;52.832;4.758;2022-12-04T04:04:16;22.10;41.40
11491;DHT22;5802;52.832;4.758;2022-12-04T04:06:47;22.10;41.40
11491;DHT22;5802;52.832;4.758;2022-12-04T04:09:19;22.10;41.40
11491;DHT22;5802;52.832;4.758;2022-12-04T04:11:48;22.10;41.40
11491;DHT22;5802;52.832;4.758;2022-12-04T04:14:22;22.10;41.40
11491;DHT22;5802;52.832;4.758;2022-12-04T04:17:09;22.10;41.40
11491;DHT22;5802;52.832;4.758;2022-12-04T04:19:58;22.10;41.40
11491;DHT22;5802;52.832;4.758;2022-12-04T04:22:46;22.10;41.40
11491;DHT22;5802;52.832;4.758;2022-12-04T04:25:33;22.10;41.40
11491;DHT22;5802;52.832;4.758;2022-12-04T04:28:02;22.10;41.40
11491;DHT22;5802;52.832;4.758;2022-12-04T04:30:31;22.10;41.40
11491;DHT22;5802;52.832;4.758;2022-12-04T04:33:04;22.10;41.40
11491;DHT22;5802;52.832;4.758;2022-12-04T04:35:39;22.10;41.40
11491;DHT22;5802;52.832;4.758;2022-12-04T04:38:14;22.10;41.40
11491;DHT22;5802;52.832;4.758;2022-12-04T04:40:51;22.10;41.40
11491;DHT22;5802;52.832;4.758;2022-12-04T04:43:24;22.10;41.40
11491;DHT22;5802;52.832;4.758;2022-12-04T04:45:57;22.10;41.40
11491;DHT22;5802;52.832;4.758;2022-12-04T04:48:28;22.10;41.40
11491;DHT22;5802;52.832;4.758;2022-12-04T04:50:57;22.10;41.40
11491;DHT22;5802;52.832;4.758;2022-12-04T04:53:28;22.10;41.40
11491;DHT22;5802;52.832;4.758;2022-12-04T04:55:56;22.10;41.40
11491;DHT22;5802;52.832;4.758;2022-12-04T04:58:24;22.10;41.40
11491;DHT22;5802;52.832;4.758;2022-12-04T05:00:59;22.10;41.40
11491;DHT22;5802;52.832;4.758;2022-12-04T05:03:27;22.10;41.40
11491;DHT22;5802;52.832;4.758;2022-12-04T05:05:54;22.10;41.40
11491;DHT22;5802;52.832;4.758;2022-12-04T05:08:21;22.20;41.50
11491;DHT22;5802;52.832;4.758;2022-12-04T05:10:48;22.20;41.50
11491;DHT22;5802;52.832;4.758;2022-12-04T05:13:16;22.20;41.50
11491;DHT22;5802;52.832;4.758;2022-12-04T05:15:43;22.20;41.80
11491;DHT22;5802;52.832;4.758;2022-12-04T05:18:11;22.20;41.50
11491;DHT22;5802;52.832;4.758;2022-12-04T05:20:38;22.20;41.50
11491;DHT22;5802;52.832;4.758;2022-12-04T05:23:05;22.20;41.50
11491;DHT22;5802;52.832;4.758;2022-12-04T05:25:32;22.20;41.50
11491;DHT22;5802;52.832;4.758;2022-12-04T05:27:58;22.20;41.50
11491;DHT22;5802;52.832;4.758;2022-12-04T05:30:25;22.20;41.50
11491;DHT22;5802;52.832;4.758;2022-12-04T05:32:52;22.20;41.50
11491;DHT22;5802;52.832;4.758;2022-12-04T05:35:20;22.20;41.40
11491;DHT22;5802;52.832;4.758;2022-12-04T05:37:46;22.20;41.40
11491;DHT22;5802;52.832;4.758;2022-12-04T05:40:13;22.20;41.40
11491;DHT22;5802;52.832;4.758;2022-12-04T05:42:40;22.20;41.40
11491;DHT22;5802;52.832;4.758;2022-12-04T05:45:07;22.20;41.40
11491;DHT22;5802;52.832;4.758;2022-12-04T05:47:37;22.20;41.40
11491;DHT22;5802;52.832;4.758;2022-12-04T05:50:05;22.20;41.40
11491;DHT22;5802;52.832;4.758;2022-12-04T05:52:33;22.20;41.40
11491;DHT22;5802;52.832;4.758;2022-12-04T05:55:00;22.20;41.30
11491;DHT22;5802;52.832;4.758;2022-12-04T05:57:27;22.20;41.30
11491;DHT22;5802;52.832;4.758;2022-12-04T05:59:53;22.20;41.30
11491;DHT22;5802;52.832;4.758;2022-12-04T06:02:20;22.30;41.30
11491;DHT22;5802;52.832;4.758;2022-12-04T06:04:47;22.30;41.30
11491;DHT22;5802;52.832;4.758;2022-12-04T06:07:14;22.30;41.30
11491;DHT22;5802;52.832;4.758;2022-12-04T06:09:42;22.30;41.30
11491;DHT22;5802;52.832;4.758;2022-12-04T06:12:09;22.30;41.20
11491;DHT22;5802;52.832;4.758;2022-12-04T06:14:35;22.30;41.20
11491;DHT22;5802;52.832;4.758;2022-12-04T06:17:02;22.30;41.20
11491;DHT22;5802;52.832;4.758;2022-12-04T06:19:29;22.30;41.20
11491;DHT22;5802;52.832;4.758;2022-12-04T06:21:56;22.30;41.20
11491;DHT22;5802;52.832;4.758;2022-12-04T06:24:23;22.30;41.20
11491;DHT22;5802;52.832;4.758;2022-12-04T06:26:54;22.30;41.20
11491;DHT22;5802;52.832;4.758;2022-12-04T06:29:21;22.30;41.10
11491;DHT22;5802;52.832;4.758;2022-12-04T06:31:48;22.30;41.20
11491;DHT22;5802;52.832;4.758;2022-12-04T06:34:15;22.30;41.10
11491;DHT22;5802;52.832;4.758;2022-12-04T06:36:41;22.30;41.10
11491;DHT22;5802;52.832;4.758;2022-12-04T06:39:08;22.30;41.00
11491;DHT22;5802;52.832;4.758;2022-12-04T06:41:35;22.30;41.00
11491;DHT22;5802;52.832;4.758;2022-12-04T06:44:06;22.30;40.90
11491;DHT22;5802;52.832;4.758;2022-12-04T06:46:33;22.30;40.80
11491;DHT22;5802;52.832;4.758;2022-12-04T06:49:00;22.30;40.80
11491;DHT22;5802;52.832;4.758;2022-12-04T06:51:29;22.30;40.80
11491;DHT22;5802;52.832;4.758;2022-12-04T06:53:56;22.30;40.70
11491;DHT22;5802;52.832;4.758;2022-12-04T06:56:24;22.40;40.70
11491;DHT22;5802;52.832;4.758;2022-12-04T06:58:53;22.30;40.60
11491;DHT22;5802;52.832;4.758;2022-12-04T07:01:23;22.40;40.70
11491;DHT22;5802;52.832;4.758;2022-12-04T07:03:50;22.40;40.70
11491;DHT22;5802;52.832;4.758;2022-12-04T07:06:19;22.30;40.60
11491;DHT22;5802;52.832;4.758;2022-12-04T07:08:48;22.40;40.80
11491;DHT22;5802;52.832;4.758;2022-12-04T07:11:16;22.40;40.80
11491;DHT22;5802;52.832;4.758;2022-12-04T07:13:43;22.40;40.70
11491;DHT22;5802;52.832;4.758;2022-12-04T07:16:12;22.40;40.70
11491;DHT22;5802;52.832;4.758;2022-12-04T07:18:41;22.40;40.70
11491;DHT22;5802;52.832;4.758;2022-12-04T07:21:09;22.40;40.70
11491;DHT22;5802;52.832;4.758;2022-12-04T07:23:36;22.40;40.60
11491;DHT22;5802;52.832;4.758;2022-12-04T07:26:04;22.40;40.70
11491;DHT22;5802;52.832;4.758;2022-12-04T07:28:31;22.40;40.60
11491;DHT22;5802;52.832;4.758;2022-12-04T07:30:57;22.40;40.70
11491;DHT22;5802;52.832;4.758;2022-12-04T07:33:24;22.40;40.60
11491;DHT22;5802;52.832;4.758;2022-12-04T07:35:55;22.40;40.70
11491;DHT22;5802;52.832;4.758;2022-12-04T07:38:22;22.40;40.60
11491;DHT22;5802;52.832;4.758;2022-12-04T07:40:49;22.40;40.60
11491;DHT22;5802;52.832;4.758;2022-12-04T07:43:15;22.40;40.60
11491;DHT22;5802;52.832;4.758;2022-12-04T07:45:42;22.40;40.60
11491;DHT22;5802;52.832;4.758;2022-12-04T07:48:09;22.40;40.60
11491;DHT22;5802;52.832;4.758;2022-12-04T07:50:35;22.40;40.60
11491;DHT22;5802;52.832;4.758;2022-12-04T07:53:03;22.40;40.60
11491;DHT22;5802;52.832;4.758;2022-12-04T07:55:30;22.40;40.60
11491;DHT22;5802;52.832;4.758;2022-12-04T07:57:57;22.40;40.50
11491;DHT22;5802;52.832;4.758;2022-12-04T08:00:24;22.40;40.60
11491;DHT22;5802;52.832;4.758;2022-12-04T08:02:50;22.40;40.60
11491;DHT22;5802;52.832;4.758;2022-12-04T08:05:17;22.40;40.60
11491;DHT22;5802;52.832;4.758;2022-12-04T08:07:44;22.40;40.50
11491;DHT22;5802;52.832;4.758;2022-12-04T08:10:12;22.40;40.60
11491;DHT22;5802;52.832;4.758;2022-12-04T08:12:39;22.40;40.50
11491;DHT22;5802;52.832;4.758;2022-12-04T08:15:06;22.40;40.60
11491;DHT22;5802;52.832;4.758;2022-12-04T08:17:33;22.40;40.60
11491;DHT22;5802;52.832;4.758;2022-12-04T08:20:00;22.40;41.20
11491;DHT22;5802;52.832;4.758;2022-12-04T08:22:27;22.40;40.60
11491;DHT22;5802;52.832;4.758;2022-12-04T08:24:53;22.40;40.50
11491;DHT22;5802;52.832;4.758;2022-12-04T08:27:21;22.40;40.30
11491;DHT22;5802;52.832;4.758;2022-12-04T08:29:48;22.40;39.90
11491;DHT22;5802;52.832;4.758;2022-12-04T08:32:15;22.40;39.80
11491;DHT22;5802;52.832;4.758;2022-12-04T08:34:42;22.40;39.60
11491;DHT22;5802;52.832;4.758;2022-12-04T08:37:08;22.40;39.60
11491;DHT22;5802;52.832;4.758;2022-12-04T08:39:35;22.40;39.40
11491;DHT22;5802;52.832;4.758;2022-12-04T08:42:01;22.40;39.30
11491;DHT22;5802;52.832;4.758;2022-12-04T08:44:29;22.40;39.30
11491;DHT22;5802;52.832;4.758;2022-12-04T08:46:56;22.30;39.20
11491;DHT22;5802;52.832;4.758;2022-12-04T08:49:23;22.30;39.10
11491;DHT22;5802;52.832;4.758;2022-12-04T08:51:50;22.40;39.10
11491;DHT22;5802;52.832;4.758;2022-12-04T08:54:16;22.30;38.90
11491;DHT22;5802;52.832;4.758;2022-12-04T08:56:43;22.30;38.90
11491;DHT22;5802;52.832;4.758;2022-12-04T08:59:11;22.30;38.90
11491;DHT22;5802;52.832;4.758;2022-12-04T09:01:39;22.30;38.80
11491;DHT22;5802;52.832;4.758;2022-12-04T09:04:06;22.30;38.80
11491;DHT22;5802;52.832;4.758;2022-12-04T09:06:33;22.30;38.70
11491;DHT22;5802;52.832;4.758;2022-12-04T09:09:00;22.30;38.70
11491;DHT22;5802;52.832;4.758;2022-12-04T09:11:28;22.30;38.50
11491;DHT22;5802;52.832;4.758;2022-12-04T09:13:57;22.30;38.50
11491;DHT22;5802;52.832;4.758;2022-12-04T09:16:25;22.30;38.50
11491;DHT22;5802;52.832;4.758;2022-12-04T09:18:53;22.30;38.60
11491;DHT22;5802;52.832;4.758;2022-12-04T09:21:21;22.30;38.70
11491;DHT22;5802;52.832;4.758;2022-12-04T09:23:49;22.20;38.70
11491;DHT22;5802;52.832;4.758;2022-12-04T09:26:19;22.20;38.90
11491;DHT22;5802;52.832;4.758;2022-12-04T09:28:47;22.20;39.00
11491;DHT22;5802;52.832;4.758;2022-12-04T09:31:14;22.20;39.10
11491;DHT22;5802;52.832;4.758;2022-12-04T09:33:41;22.20;39.20
11491;DHT22;5802;52.832;4.758;2022-12-04T09:36:09;22.20;39.20
11491;DHT22;5802;52.832;4.758;2022-12-04T09:38:40;22.20;39.30
11491;DHT22;5802;52.832;4.758;2022-12-04T09:41:18;22.20;39.30
11491;DHT22;5802;52.832;4.758;2022-12-04T09:43:49;22.20;39.40
11491;DHT22;5802;52.832;4.758;2022-12-04T09:46:21;22.20;39.40
11491;DHT22;5802;52.832;4.758;2022-12-04T09:48:50;22.20;39.50
11491;DHT22;5802;52.832;4.758;2022-12-04T09:51:21;22.20;39.60
11491;DHT22;5802;52.832;4.758;2022-12-04T09:53:53;22.20;39.60
11491;DHT22;5802;52.832;4.758;2022-12-04T09:56:24;22.20;39.70
11491;DHT22;5802;52.832;4.758;2022-12-04T09:58:56;22.20;39.80
11491;DHT22;5802;52.832;4.758;2022-12-04T10:01:27;22.20;39.80
11491;DHT22;5802;52.832;4.758;2022-12-04T10:03:55;22.20;39.90
11491;DHT22;5802;52.832;4.758;2022-12-04T10:06:25;22.20;39.90
11491;DHT22;5802;52.832;4.758;2022-12-04T10:08:59;22.20;40.00
11491;DHT22;5802;52.832;4.758;2022-12-04T10:11:32;22.20;40.00
11491;DHT22;5802;52.832;4.758;2022-12-04T10:14:15;22.20;40.10
11491;DHT22;5802;52.832;4.758;2022-12-04T10:16:55;22.20;40.20
11491;DHT22;5802;52.832;4.758;2022-12-04T10:19:31;22.20;40.20
11491;DHT22;5802;52.832;4.758;2022-12-04T10:22:08;22.20;40.30
11491;DHT22;5802;52.832;4.758;2022-12-04T10:24:42;22.20;40.30
11491;DHT22;5802;52.832;4.758;2022-12-04T10:27:16;22.20;40.20
11491;DHT22;5802;52.832;4.758;2022-12-04T10:29:47;22.20;40.10
11491;DHT22;5802;52.832;4.758;2022-12-04T10:32:19;22.20;40.20
11491;DHT22;5802;52.832;4.758;2022-12-04T10:34:48;22.20;40.30
11491;DHT22;5802;52.832;4.758;2022-12-04T10:37:17;22.20;40.40
11491;DHT22;5802;52.832;4.758;2022-12-04T10:39:50;22.20;40.50
11491;DHT22;5802;52.832;4.758;2022-12-04T10:42:24;22.20;40.50
11491;DHT22;5802;52.832;4.758;2022-12-04T10:44:52;22.20;40.60
11491;DHT22;5802;52.832;4.758;2022-12-04T10:47:19;22.20;40.60
11491;DHT22;5802;52.832;4.758;2022-12-04T10:49:51;22.20;40.70
11491;DHT22;5802;52.832;4.758;2022-12-04T10:52:22;22.20;40.60
11491;DHT22;5802;52.832;4.758;2022-12-04T10:54:52;22.20;40.60
11491;DHT22;5802;52.832;4.758;2022-12-04T10:57:20;22.20;40.70
11491;DHT22;5802;52.832;4.758;2022-12-04T10:59:49;22.20;40.80
11491;DHT22;5802;52.832;4.758;2022-12-04T11:02:19;22.20;40.90
11491;DHT22;5802;52.832;4.758;2022-12-04T11:04:52;22.30;41.00
11491;DHT22;5802;52.832;4.758;2022-12-04T11:07:23;22.30;41.00
11491;DHT22;5802;52.832;4.758;2022-12-04T11:09:56;22.30;41.10
11491;DHT22;5802;52.832;4.758;2022-12-04T11:12:23;22.30;41.10
11491;DHT22;5802;52.832;4.758;2022-12-04T11:14:59;22.30;41.20
11491;DHT22;5802;52.832;4.758;2022-12-04T11:17:26;22.30;41.30
11491;DHT22;5802;52.832;4.758;2022-12-04T11:19:59;22.30;41.30
11491;DHT22;5802;52.832;4.758;2022-12-04T11:22:27;22.30;41.30
11491;DHT22;5802;52.832;4.758;2022-12-04T11:24:56;22.30;41.20
11491;DHT22;5802;52.832;4.758;2022-12-04T11:27:26;22.30;41.10
11491;DHT22;5802;52.832;4.758;2022-12-04T11:29:57;22.30;41.10
11491;DHT22;5802;52.832;4.758;2022-12-04T11:32:28;22.30;41.80
11491;DHT22;5802;52.832;4.758;2022-12-04T11:34:58;22.30;41.20
11491;DHT22;5802;52.832;4.758;2022-12-04T11:37:29;22.40;41.40
11491;DHT22;5802;52.832;4.758;2022-12-04T11:39:58;22.30;41.40
11491;DHT22;5802;52.832;4.758;2022-12-04T11:42:27;22.30;41.50
11491;DHT22;5802;52.832;4.758;2022-12-04T11:44:55;22.30;41.50
11491;DHT22;5802;52.832;4.758;2022-12-04T11:47:24;22.30;41.50
11491;DHT22;5802;52.832;4.758;2022-12-04T11:50:12;22.40;41.60
11491;DHT22;5802;52.832;4.758;2022-12-04T11:52:51;22.40;41.50
11491;DHT22;5802;52.832;4.758;2022-12-04T11:55:25;22.40;41.50
11491;DHT22;5802;52.832;4.758;2022-12-04T11:58:10;22.40;41.50
11491;DHT22;5802;52.832;4.758;2022-12-04T12:00:46;22.30;41.50
11491;DHT22;5802;52.832;4.758;2022-12-04T12:03:23;22.40;41.40
11491;DHT22;5802;52.832;4.758;2022-12-04T12:06:15;22.40;41.40
11491;DHT22;5802;52.832;4.758;2022-12-04T12:08:54;22.40;42.00
11491;DHT22;5802;52.832;4.758;2022-12-04T12:11:27;22.40;41.30
11491;DHT22;5802;52.832;4.758;2022-12-04T12:14:05;22.40;41.20
11491;DHT22;5802;52.832;4.758;2022-12-04T12:16:43;22.30;40.10
11491;DHT22;5802;52.832;4.758;2022-12-04T12:19:35;22.30;38.50
11491;DHT22;5802;52.832;4.758;2022-12-04T12:22:10;22.30;37.80
11491;DHT22;5802;52.832;4.758;2022-12-04T12:24:45;22.30;38.10
11491;DHT22;5802;52.832;4.758;2022-12-04T12:27:38;22.30;38.40
11491;DHT22;5802;52.832;4.758;2022-12-04T12:30:11;22.30;38.50
11491;DHT22;5802;52.832;4.758;2022-12-04T12:32:54;22.30;38.60
11491;DHT22;5802;52.832;4.758;2022-12-04T12:35:26;22.30;38.60
11491;DHT22;5802;52.832;4.758;2022-12-04T12:37:58;22.30;38.70
11491;DHT22;5802;52.832;4.758;2022-12-04T12:40:32;22.30;38.60
11491;DHT22;5802;52.832;4.758;2022-12-04T12:43:05;22.30;38.60
11491;DHT22;5802;52.832;4.758;2022-12-04T12:45:37;22.30;38.70
11491;DHT22;5802;52.832;4.758;2022-12-04T12:48:21;22.30;38.60
11491;DHT22;5802;52.832;4.758;2022-12-04T12:50:53;22.30;38.70
11491;DHT22;5802;52.832;4.758;2022-12-04T12:53:22;22.30;38.80
11491;DHT22;5802;52.832;4.758;2022-12-04T12:55:53;22.30;38.80
11491;DHT22;5802;52.832;4.758;2022-12-04T12:58:26;22.30;38.90
11491;DHT22;5802;52.832;4.758;2022-12-04T13:00:58;22.30;38.80
11491;DHT22;5802;52.832;4.758;2022-12-04T13:03:36;22.30;39.00
11491;DHT22;5802;52.832;4.758;2022-12-04T13:06:08;22.20;39.10
11491;DHT22;5802;52.832;4.758;2022-12-04T13:08:41;22.20;39.10
11491;DHT22;5802;52.832;4.758;2022-12-04T13:11:12;22.20;39.20
11491;DHT22;5802;52.832;4.758;2022-12-04T13:13:44;22.20;39.20
11491;DHT22;5802;52.832;4.758;2022-12-04T13:16:16;22.20;39.30
11491;DHT22;5802;52.832;4.758;2022-12-04T13:18:48;22.20;39.30
11491;DHT22;5802;52.832;4.758;2022-12-04T13:21:29;22.20;39.50
11491;DHT22;5802;52.832;4.758;2022-12-04T13:24:26;22.20;39.50
11491;DHT22;5802;52.832;4.758;2022-12-04T13:27:00;22.20;39.50
11491;DHT22;5802;52.832;4.758;2022-12-04T13:29:55;22.20;39.60
11491;DHT22;5802;52.832;4.758;2022-12-04T13:32:58;22.20;39.50
11491;DHT22;5802;52.832;4.758;2022-12-04T13:35:58;22.20;39.50
11491;DHT22;5802;52.832;4.758;2022-12-04T13:38:35;22.20;39.60
11491;DHT22;5802;52.832;4.758;2022-12-04T13:41:04;22.20;39.60
11491;DHT22;5802;52.832;4.758;2022-12-04T13:43:35;22.20;39.70
11491;DHT22;5802;52.832;4.758;2022-12-04T13:46:05;22.20;39.80
11491;DHT22;5802;52.832;4.758;2022-12-04T13:48:35;22.20;39.90
11491;DHT22;5802;52.832;4.758;2022-12-04T13:51:06;22.20;40.00
11491;DHT22;5802;52.832;4.758;2022-12-04T13:53:35;22.20;40.10
11491;DHT22;5802;52.832;4.758;2022-12-04T13:56:04;22.20;40.20
11491;DHT22;5802;52.832;4.758;2022-12-04T13:58:34;22.20;40.30
11491;DHT22;5802;52.832;4.758;2022-12-04T14:01:04;22.20;40.40
11491;DHT22;5802;52.832;4.758;2022-12-04T14:03:45;22.20;40.40
11491;DHT22;5802;52.832;4.758;2022-12-04T14:06:21;22.20;40.50
11491;DHT22;5802;52.832;4.758;2022-12-04T14:08:54;22.20;40.60
11491;DHT22;5802;52.832;4.758;2022-12-04T14:11:22;22.20;40.70
11491;DHT22;5802;52.832;4.758;2022-12-04T14:13:52;22.20;40.70
11491;DHT22;5802;52.832;4.758;2022-12-04T14:16:22;22.20;40.70
11491;DHT22;5802;52.832;4.758;2022-12-04T14:18:53;22.20;40.80
11491;DHT22;5802;52.832;4.758;2022-12-04T14:21:20;22.20;40.80
11491;DHT22;5802;52.832;4.758;2022-12-04T14:23:48;22.20;40.80
11491;DHT22;5802;52.832;4.758;2022-12-04T14:26:21;22.20;40.80
11491;DHT22;5802;52.832;4.758;2022-12-04T14:28:50;22.20;40.90
11491;DHT22;5802;52.832;4.758;2022-12-04T14:31:24;22.20;40.90
11491;DHT22;5802;52.832;4.758;2022-12-04T14:33:57;22.20;41.00
11491;DHT22;5802;52.832;4.758;2022-12-04T14:36:26;22.20;41.70
11491;DHT22;5802;52.832;4.758;2022-12-04T14:39:02;22.20;41.00
11491;DHT22;5802;52.832;4.758;2022-12-04T14:41:29;22.20;41.10
11491;DHT22;5802;52.832;4.758;2022-12-04T14:43:59;22.20;41.10
11491;DHT22;5802;52.832;4.758;2022-12-04T14:46:31;22.20;41.10
11491;DHT22;5802;52.832;4.758;2022-12-04T14:49:05;22.20;41.10
11491;DHT22;5802;52.832;4.758;2022-12-04T14:51:36;22.20;41.10
11491;DHT22;5802;52.832;4.758;2022-12-04T14:54:09;22.20;41.80
11491;DHT22;5802;52.832;4.758;2022-12-04T14:56:51;22.30;41.20
11491;DHT22;5802;52.832;4.758;2022-12-04T14:59:27;22.30;41.30
11491;DHT22;5802;52.832;4.758;2022-12-04T15:01:58;22.30;41.30
11491;DHT22;5802;52.832;4.758;2022-12-04T15:04:28;22.30;41.30
11491;DHT22;5802;52.832;4.758;2022-12-04T15:06:57;22.30;41.30
11491;DHT22;5802;52.832;4.758;2022-12-04T15:09:24;22.30;41.30
11491;DHT22;5802;52.832;4.758;2022-12-04T15:12:17;22.30;41.30
11491;DHT22;5802;52.832;4.758;2022-12-04T15:15:07;22.30;41.30
11491;DHT22;5802;52.832;4.758;2022-12-04T15:17:34;22.30;41.40
11491;DHT22;5802;52.832;4.758;2022-12-04T15:20:10;22.30;41.50
11491;DHT22;5802;52.832;4.758;2022-12-04T15:22:37;22.30;41.60
11491;DHT22;5802;52.832;4.758;2022-12-04T15:25:04;22.30;41.60
11491;DHT22;5802;52.832;4.758;2022-12-04T15:27:32;22.30;41.60
11491;DHT22;5802;52.832;4.758;2022-12-04T15:30:02;22.30;41.50
11491;DHT22;5802;52.832;4.758;2022-12-04T15:32:30;22.30;41.50
11491;DHT22;5802;52.832;4.758;2022-12-04T15:34:59;22.30;41.50
11491;DHT22;5802;52.832;4.758;2022-12-04T15:37:28;22.30;41.50
11491;DHT22;5802;52.832;4.758;2022-12-04T15:39:56;22.40;41.50
11491;DHT22;5802;52.832;4.758;2022-12-04T15:42:26;22.40;41.50
11491;DHT22;5802;52.832;4.758;2022-12-04T15:44:54;22.40;41.50
11491;DHT22;5802;52.832;4.758;2022-12-04T15:47:28;22.40;41.40
11491;DHT22;5802;52.832;4.758;2022-12-04T15:50:06;22.40;41.40
11491;DHT22;5802;52.832;4.758;2022-12-04T15:52:34;22.40;41.40
11491;DHT22;5802;52.832;4.758;2022-12-04T15:55:05;22.40;41.20
11491;DHT22;5802;52.832;4.758;2022-12-04T15:57:33;22.40;41.20
11491;DHT22;5802;52.832;4.758;2022-12-04T16:00:02;22.40;41.10
11491;DHT22;5802;52.832;4.758;2022-12-04T16:02:33;22.40;41.10
11491;DHT22;5802;52.832;4.758;2022-12-04T16:05:10;22.40;41.10
11491;DHT22;5802;52.832;4.758;2022-12-04T16:07:47;22.40;41.00